Time;durP1;ratioP1;P1;durP2;ratioP2;P2;SDS_P1;SDS_P2;PMS_P1;PMS_P2;Temp;Humidity;BMP_temperature;BMP_pressure;BME280_temperature;BME280_humidity;BME280_pressure;Samples;Min_cycle;Max_cycle;Signal;HPM_P1;HPM_P2
2024/04/26 00:01:21;;;;;;;4.60;3.70;;;;;;;22.27;65.72;99720.08;106260;1255;68522;-80
2024/04/26 00:03:50;;;;;;;7.10;3.00;;;;;;;22.49;63.48;99718.94;106351;1254;75456;-80
2024/04/26 00:06:17;;;;;;;6.30;3.50;;;;;;;22.46;63.46;99718.27;106291;1255;62037;-83
2024/04/26 00:08:45;;;;;;;4.80;3.20;;;;;;;22.62;62.23;99712.20;106403;1258;62156;-83
2024/04/26 00:11:13;;;;;;;4.20;3.30;;;;;;;22.75;60.89;99710.85;106400;1254;75588;-84
2024/04/26 00:13:41;;;;;;;6.10;3.20;;;;;;;22.63;61.55;99714.83;106402;1254;68427;-79
2024/04/26 00:16:08;;;;;;;6.50;3.30;;;;;;;22.41;63.28;99720.19;106327;1260;72397;-82
2024/04/26 00:18:36;;;;;;;3.80;2.90;;;;;;;22.60;62.00;99718.37;106193;1261;61980;-80
2024/04/26 00:21:03;;;;;;;4.60;3.10;;;;;;;22.43;62.82;99720.45;106087;1260;62698;-79
2024/04/26 00:23:31;;;;;;;5.60;3.00;;;;;;;20.85;74.03;99727.98;106194;1256;75949;-82
2024/04/26 00:25:58;;;;;;;5.10;3.20;;;;;;;18.77;93.84;99734.17;105996;1260;67273;-82
2024/04/26 00:28:26;;;;;;;6.70;3.10;;;;;;;19.13;93.31;99728.59;106070;1254;71460;-82
2024/04/26 00:30:55;;;;;;;5.90;3.10;;;;;;;19.67;87.99;99728.27;106092;1255;62139;-82
2024/04/26 00:33:23;;;;;;;5.60;3.60;;;;;;;19.09;92.14;99727.46;106112;1260;62214;-82
2024/04/26 00:35:50;;;;;;;6.00;3.60;;;;;;;20.04;84.87;99727.69;106270;1256;73600;-82
2024/04/26 00:38:18;;;;;;;7.50;3.60;;;;;;;20.23;81.58;99727.38;106199;1257;68631;-79
2024/04/26 00:40:45;;;;;;;6.70;3.80;;;;;;;20.63;78.33;99729.46;106266;1260;73178;-79
2024/04/26 00:43:13;;;;;;;7.60;3.90;;;;;;;20.85;75.29;99724.77;106252;1254;62107;-82
2024/04/26 00:45:40;;;;;;;5.00;3.60;;;;;;;20.80;74.91;99720.95;106107;1254;62230;-79
2024/04/26 00:48:08;;;;;;;4.00;3.40;;;;;;;19.39;84.36;99723.05;106020;1264;75204;-82
2024/04/26 00:50:35;;;;;;;6.50;3.70;;;;;;;19.74;84.38;99722.19;106175;1254;67607;-79
2024/04/26 00:53:03;;;;;;;11.80;3.90;;;;;;;19.72;82.62;99723.34;106167;1260;72714;-83
2024/04/26 00:55:31;;;;;;;8.70;4.40;;;;;;;19.11;86.07;99724.05;106099;1261;62062;-82
2024/04/26 00:57:58;;;;;;;6.90;4.20;;;;;;;19.29;86.05;99721.44;106032;1254;62049;-81
2024/04/26 01:00:26;;;;;;;6.50;3.70;;;;;;;20.01;79.56;99713.84;105968;1254;75611;-82
2024/04/26 01:02:53;;;;;;;5.60;4.10;;;;;;;20.26;76.93;99707.58;106210;1254;68897;-82
2024/04/26 01:05:21;;;;;;;5.30;4.00;;;;;;;20.14;77.69;99707.21;106123;1256;71466;-82
2024/04/26 01:07:49;;;;;;;10.10;4.30;;;;;;;20.61;73.90;99711.27;106175;1257;62396;-82
2024/04/26 01:10:17;;;;;;;7.30;4.10;;;;;;;19.15;85.57;99714.79;106225;1259;61992;-83
2024/04/26 01:12:45;;;;;;;9.80;4.00;;;;;;;19.34;84.83;99711.68;106103;1254;75563;-80
2024/04/26 01:15:13;;;;;;;7.00;3.20;;;;;;;19.22;85.17;99704.02;106033;1254;68482;-83
2024/04/26 01:17:40;;;;;;;5.50;3.80;;;;;;;19.35;83.77;99702.74;106096;1260;71477;-80
2024/04/26 01:20:08;;;;;;;5.00;3.50;;;;;;;19.86;80.37;99694.05;106150;1257;62140;-83
2024/04/26 01:22:40;;;;;;;5.10;3.10;;;;;;;19.48;81.35;99682.02;106160;1266;62515;-83
2024/04/26 01:25:07;;;;;;;7.70;3.60;;;;;;;19.10;84.80;99679.56;106127;1260;76052;-82
2024/04/26 01:27:35;;;;;;;6.90;4.00;;;;;;;19.70;81.07;99670.58;106038;1261;68506;-82
2024/04/26 01:30:04;;;;;;;12.70;4.80;;;;;;;19.88;77.72;99668.05;106411;1254;71551;-80
2024/04/26 01:32:31;;;;;;;6.10;3.50;;;;;;;19.63;80.39;99666.66;106276;1258;61993;-82
2024/04/26 01:34:59;;;;;;;6.50;3.80;;;;;;;20.20;76.34;99669.08;106189;1254;62203;-79
2024/04/26 01:37:26;;;;;;;7.50;4.20;;;;;;;20.19;75.00;99669.74;106280;1254;74254;-82
2024/04/26 01:39:53;;;;;;;4.70;3.80;;;;;;;17.62;95.32;99681.19;106357;1260;68490;-82
2024/04/26 01:42:21;;;;;;;7.00;4.10;;;;;;;16.31;100.00;99690.79;106303;1256;72772;-82
2024/04/26 01:44:48;;;;;;;8.10;4.20;;;;;;;16.68;100.00;99686.51;106263;1256;63765;-82
2024/04/26 01:47:16;;;;;;;6.70;4.80;;;;;;;16.87;100.00;99693.55;105906;1257;62037;-82
2024/04/26 01:49:44;;;;;;;6.60;4.60;;;;;;;16.99;100.00;99695.43;106346;1254;74252;-79
2024/04/26 01:52:11;;;;;;;8.20;5.40;;;;;;;17.09;100.00;99698.61;106095;1260;68496;-82
2024/04/26 01:54:38;;;;;;;7.30;5.00;;;;;;;17.15;100.00;99696.60;106308;1257;73213;-79
2024/04/26 01:57:06;;;;;;;10.50;6.00;;;;;;;17.31;100.00;99700.14;106461;1254;62118;-79
2024/04/26 01:59:36;;;;;;;9.90;6.80;;;;;;;17.73;100.00;99696.71;106394;1254;62494;-80
2024/04/26 02:02:04;;;;;;;10.40;5.70;;;;;;;17.72;100.00;99695.41;106047;1254;75435;-82
2024/04/26 02:04:32;;;;;;;7.00;4.70;;;;;;;17.94;100.00;99689.66;106117;1259;68596;-82
2024/04/26 02:06:59;;;;;;;7.60;5.60;;;;;;;18.67;97.15;99698.30;106186;1257;71886;-80
2024/04/26 02:09:27;;;;;;;9.70;5.80;;;;;;;18.96;93.36;99704.16;106272;1257;62044;-79
2024/04/26 02:11:54;;;;;;;8.40;5.80;;;;;;;19.04;93.11;99706.77;106435;1256;62226;-82
2024/04/26 02:14:22;;;;;;;8.70;5.00;;;;;;;19.33;90.32;99704.68;106322;1254;74380;-82
2024/04/26 02:16:49;;;;;;;10.40;5.80;;;;;;;19.47;88.68;99708.70;106152;1260;68966;-79
2024/04/26 02:19:17;;;;;;;8.80;5.60;;;;;;;19.50;87.96;99710.83;106238;1258;71710;-82
2024/04/26 02:21:44;;;;;;;8.70;5.40;;;;;;;19.60;86.04;99710.63;106102;1260;62047;-82
2024/04/26 02:24:12;;;;;;;10.70;5.40;;;;;;;19.50;86.87;99707.98;106179;1254;61975;-82
2024/04/26 02:26:40;;;;;;;9.30;5.20;;;;;;;19.35;87.75;99710.61;106111;1254;74288;-79
2024/04/26 02:29:07;;;;;;;9.00;4.80;;;;;;;19.60;85.77;99707.59;106269;1254;68580;-79
2024/04/26 02:31:35;;;;;;;10.90;6.00;;;;;;;19.41;86.02;99703.63;106151;1257;72774;-79
2024/04/26 02:34:02;;;;;;;6.50;5.20;;;;;;;19.45;85.27;99703.19;106133;1257;62050;-79
2024/04/26 02:36:30;;;;;;;8.90;5.60;;;;;;;19.23;86.53;99706.35;106000;1255;62278;-82
2024/04/26 02:38:58;;;;;;;9.30;5.90;;;;;;;19.32;86.34;99711.58;106116;1259;75505;-79
2024/04/26 02:41:26;;;;;;;9.80;6.20;;;;;;;19.41;85.64;99708.14;106272;1257;67291;-82
2024/04/26 02:43:53;;;;;;;9.70;5.60;;;;;;;19.36;85.71;99707.92;106147;1254;72705;-79
2024/04/26 02:46:21;;;;;;;9.70;5.50;;;;;;;19.20;87.16;99711.79;106038;1254;62054;-82
2024/04/26 02:48:48;;;;;;;7.10;5.70;;;;;;;19.08;88.00;99714.09;106122;1256;62191;-79
2024/04/26 02:51:16;;;;;;;6.70;5.70;;;;;;;18.91;88.90;99715.59;106522;1258;74995;-83
2024/04/26 02:53:44;;;;;;;8.70;6.00;;;;;;;18.80;90.28;99718.93;106457;1260;68833;-79
2024/04/26 02:56:11;;;;;;;13.10;6.60;;;;;;;19.04;88.41;99722.84;106110;1254;72526;-83
2024/04/26 02:58:39;;;;;;;10.10;6.30;;;;;;;19.19;87.47;99726.10;106092;1259;62105;-83
2024/04/26 03:01:08;;;;;;;10.80;6.80;;;;;;;19.23;87.88;99732.93;106126;1260;62108;-80
2024/04/26 03:03:36;;;;;;;12.10;7.10;;;;;;;19.38;87.10;99733.63;106213;1254;74301;-81
2024/04/26 03:06:08;;;;;;;9.30;6.20;;;;;;;19.41;87.73;99739.73;106085;1260;67361;-82
2024/04/26 03:08:36;;;;;;;9.40;6.10;;;;;;;19.46;87.60;99743.89;106275;1256;72947;-82
2024/04/26 03:11:05;;;;;;;8.60;5.70;;;;;;;19.42;87.92;99752.34;106101;1257;62159;-79
2024/04/26 03:13:33;;;;;;;7.90;5.50;;;;;;;19.46;87.99;99752.98;106217;1254;61997;-83
2024/04/26 03:16:00;;;;;;;9.30;6.50;;;;;;;19.73;85.56;99754.31;106020;1254;75516;-80
2024/04/26 03:18:28;;;;;;;13.70;5.80;;;;;;;19.61;87.37;99754.48;106192;1257;67800;-80
2024/04/26 03:20:56;;;;;;;9.20;5.90;;;;;;;19.79;86.23;99758.70;106130;1255;74901;-79
2024/04/26 03:23:23;;;;;;;9.00;5.80;;;;;;;19.89;84.72;99755.99;105993;1256;62136;-83
2024/04/26 03:25:51;;;;;;;8.00;5.70;;;;;;;19.90;84.66;99746.20;106061;1256;62168;-80
2024/04/26 03:28:19;;;;;;;10.10;6.20;;;;;;;20.23;81.99;99746.89;106150;1260;74346;-80
2024/04/26 03:30:46;;;;;;;8.40;5.60;;;;;;;19.97;83.86;99756.50;106084;1254;69187;-79
2024/04/26 03:33:14;;;;;;;10.80;6.30;;;;;;;20.36;80.24;99757.81;106075;1254;72731;-84
2024/04/26 03:35:41;;;;;;;10.00;6.30;;;;;;;20.14;80.86;99756.44;106109;1254;61944;-80
2024/04/26 03:38:27;;;;;;;8.90;6.80;;;;;;;20.05;82.38;99757.24;106381;1254;61987;-80
2024/04/26 03:41:12;;;;;;;9.00;6.10;;;;;;;20.38;79.66;99754.20;106389;1254;75330;-84
2024/04/26 03:43:40;;;;;;;14.20;6.90;;;;;;;18.45;93.96;99758.65;106280;1254;68873;-84
2024/04/26 03:46:07;;;;;;;10.30;6.70;;;;;;;18.18;100.00;99762.11;106218;1254;72974;-84
2024/04/26 03:48:35;;;;;;;11.80;6.20;;;;;;;18.13;99.86;99763.08;106019;1254;62149;-80
2024/04/26 03:51:03;;;;;;;10.00;5.90;;;;;;;18.58;98.19;99756.98;106191;1262;62070;-83
2024/04/26 03:53:31;;;;;;;7.70;5.90;;;;;;;18.52;97.85;99758.67;106160;1260;75287;-80
2024/04/26 03:55:58;;;;;;;10.70;6.30;;;;;;;17.83;100.00;99765.73;106329;1254;68998;-82
2024/04/26 03:58:26;;;;;;;10.80;6.90;;;;;;;17.94;100.00;99771.88;106204;1257;72227;-80
2024/04/26 04:00:53;;;;;;;9.60;5.90;;;;;;;18.44;99.87;99777.33;106005;1258;62274;-80
2024/04/26 04:03:21;;;;;;;9.70;6.20;;;;;;;17.56;100.00;99776.96;106293;1254;62272;-81
2024/04/26 04:05:50;;;;;;;11.10;6.30;;;;;;;17.73;100.00;99778.07;106496;1254;74862;-83
2024/04/26 04:08:17;;;;;;;15.70;7.00;;;;;;;17.73;100.00;99775.82;106495;1255;67184;-83
2024/04/26 04:10:45;;;;;;;9.70;6.80;;;;;;;18.28;100.00;99779.64;106253;1258;72073;-83
2024/04/26 04:13:13;;;;;;;12.00;6.60;;;;;;;18.39;100.00;99783.86;106240;1254;62120;-83
2024/04/26 04:15:40;;;;;;;11.00;7.50;;;;;;;18.65;100.00;99783.94;106163;1262;62075;-80
2024/04/26 04:18:08;;;;;;;13.30;7.10;;;;;;;18.91;100.00;99788.54;106100;1254;74043;-83
2024/04/26 04:20:36;;;;;;;18.10;6.90;;;;;;;19.09;100.00;99784.36;105963;1260;69788;-83
2024/04/26 04:23:03;;;;;;;10.80;6.90;;;;;;;19.12;100.00;99782.63;106203;1260;73771;-80
2024/04/26 04:25:31;;;;;;;11.70;6.40;;;;;;;19.50;100.00;99787.39;106427;1254;62139;-83
2024/04/26 04:27:58;;;;;;;9.40;6.20;;;;;;;20.12;99.90;99786.64;106180;1254;62044;-83
2024/04/26 04:30:26;;;;;;;11.00;5.70;;;;;;;19.76;100.00;99783.71;106061;1254;75893;-80
2024/04/26 04:32:53;;;;;;;13.50;6.30;;;;;;;19.84;100.00;99784.47;106175;1257;69008;-82
2024/04/26 04:35:21;;;;;;;11.30;6.40;;;;;;;19.72;100.00;99791.16;106096;1257;72013;-81
2024/04/26 04:37:49;;;;;;;9.20;5.60;;;;;;;20.00;100.00;99790.23;106587;1260;62805;-81
2024/04/26 04:40:16;;;;;;;9.10;6.30;;;;;;;20.32;100.00;99789.11;108763;1254;62525;-84
2024/04/26 04:42:44;;;;;;;11.60;6.40;;;;;;;20.37;100.00;99793.34;107237;1257;77386;-80
2024/04/26 04:45:11;;;;;;;15.30;6.70;;;;;;;20.62;100.00;99798.44;106065;1254;68507;-81
2024/04/26 04:47:39;;;;;;;10.80;6.30;;;;;;;21.03;100.00;99807.89;106183;1255;75089;-81
2024/04/26 04:50:07;;;;;;;9.00;6.50;;;;;;;20.94;100.00;99815.70;105898;1254;62581;-80
2024/04/26 04:52:34;;;;;;;10.30;6.90;;;;;;;21.27;100.00;99823.68;106335;1257;62054;-80
2024/04/26 04:55:02;;;;;;;11.90;7.80;;;;;;;21.59;100.00;99823.14;106357;1254;74160;-80
2024/04/26 04:57:30;;;;;;;14.30;6.90;;;;;;;21.82;100.00;99815.11;106096;1256;70790;-80
2024/04/26 04:59:59;;;;;;;13.00;7.50;;;;;;;22.02;100.00;99813.71;105916;1262;72035;-83
2024/04/26 05:02:27;;;;;;;14.40;6.90;;;;;;;22.40;100.00;99811.36;106193;1260;62082;-83
2024/04/26 05:04:55;;;;;;;12.10;7.30;;;;;;;22.24;100.00;99819.02;106132;1254;62442;-83
2024/04/26 05:07:22;;;;;;;12.70;7.00;;;;;;;22.01;100.00;99818.77;106258;1254;75543;-83
2024/04/26 05:09:54;;;;;;;12.00;7.10;;;;;;;22.32;100.00;99816.65;106251;1254;67271;-83
2024/04/26 05:12:22;;;;;;;14.30;8.20;;;;;;;23.36;100.00;99807.55;106368;1261;72618;-84
2024/04/26 05:14:49;;;;;;;14.10;8.60;;;;;;;23.63;100.00;99809.36;106115;1256;62027;-82
2024/04/26 05:17:17;;;;;;;14.50;8.60;;;;;;;23.53;100.00;99810.30;106247;1259;61998;-83
2024/04/26 05:19:45;;;;;;;15.20;8.90;;;;;;;24.20;96.69;99819.36;106239;1260;74242;-81
2024/04/26 05:22:13;;;;;;;15.60;9.50;;;;;;;24.70;91.44;99823.88;106252;1254;68527;-83
2024/04/26 05:24:40;;;;;;;15.70;9.50;;;;;;;24.85;86.97;99821.66;106308;1254;71912;-81
2024/04/26 05:27:09;;;;;;;16.40;9.30;;;;;;;24.97;83.24;99819.79;106284;1262;62168;-84
2024/04/26 05:29:37;;;;;;;16.40;9.60;;;;;;;25.01;83.62;99819.24;106010;1254;62149;-84
2024/04/26 05:32:04;;;;;;;15.40;9.20;;;;;;;25.28;81.54;99816.79;106087;1254;68537;-84
2024/04/26 05:34:32;;;;;;;11.50;8.60;;;;;;;25.56;76.46;99813.18;106329;1254;68526;-84
2024/04/26 05:37:00;;;;;;;15.30;8.60;;;;;;;25.37;78.22;99816.42;106240;1256;72741;-84
2024/04/26 05:39:27;;;;;;;17.10;8.70;;;;;;;24.90;81.41;99816.88;106271;1254;62089;-84
2024/04/26 05:41:55;;;;;;;24.40;9.70;;;;;;;24.87;81.82;99812.71;106333;1254;62124;-82
2024/04/26 05:44:22;;;;;;;15.50;8.30;;;;;;;24.71;85.57;99811.98;106287;1259;69148;-81
2024/04/26 05:46:50;;;;;;;15.90;8.30;;;;;;;24.53;88.46;99810.52;106297;1256;71036;-81
2024/04/26 05:49:17;;;;;;;11.80;7.90;;;;;;;24.69;87.68;99820.60;106287;1254;72772;-81
2024/04/26 05:51:45;;;;;;;12.10;7.90;;;;;;;24.73;87.36;99826.61;106323;1258;62175;-84
2024/04/26 05:54:12;;;;;;;12.40;7.50;;;;;;;24.86;86.97;99825.16;106254;1254;61892;-83
2024/04/26 05:56:40;;;;;;;19.00;9.20;;;;;;;25.00;85.98;99831.06;106203;1256;75330;-80
2024/04/26 05:59:08;;;;;;;13.40;8.30;;;;;;;25.21;82.67;99829.02;106109;1260;62135;-83
2024/04/26 06:01:35;;;;;;;12.80;7.80;;;;;;;25.41;78.74;99832.20;106145;1255;66007;-82
2024/04/26 06:04:03;;;;;;;11.60;7.20;;;;;;;25.54;76.83;99843.18;106260;1257;62531;-80
2024/04/26 06:06:34;;;;;;;12.10;7.60;;;;;;;25.76;74.85;99853.94;106226;1260;62070;-80
2024/04/26 06:09:01;;;;;;;13.00;7.30;;;;;;;25.63;74.06;99860.86;106121;1260;69318;-80
2024/04/26 06:11:29;;;;;;;12.50;7.30;;;;;;;26.25;68.14;99862.84;106245;1254;62063;-81
2024/04/26 06:13:56;;;;;;;11.10;7.30;;;;;;;26.37;65.78;99871.46;104981;1254;1724259;-83
2024/04/26 06:16:24;;;;;;;13.00;7.10;;;;;;;25.99;69.25;99879.71;106182;1254;62787;-83
2024/04/26 06:18:53;;;;;;;13.20;7.70;;;;;;;25.40;73.85;99890.27;106132;1256;61973;-81
2024/04/26 06:21:21;;;;;;;17.60;7.70;;;;;;;25.50;73.62;99898.06;106341;1254;67720;-83
2024/04/26 06:23:52;;;;;;;22.90;8.60;;;;;;;25.42;74.49;99908.65;106429;1254;62200;-83
2024/04/26 06:26:20;;;;;;;17.10;7.90;;;;;;;26.03;72.10;99915.28;106215;1254;63910;-80
2024/04/26 06:28:49;;;;;;;14.80;7.50;;;;;;;26.27;70.16;99916.71;106146;1257;62041;-80
2024/04/26 06:31:17;;;;;;;10.00;6.40;;;;;;;26.86;63.68;99912.40;106058;1254;61987;-83
2024/04/26 06:33:45;;;;;;;10.80;7.20;;;;;;;27.32;60.07;99905.39;106359;1257;67602;-80
2024/04/26 06:36:13;;;;;;;12.30;7.60;;;;;;;27.37;59.08;99903.22;106110;1254;62083;-80
2024/04/26 06:38:41;;;;;;;10.40;6.70;;;;;;;27.71;56.48;99906.59;106236;1257;66122;-80
2024/04/26 06:41:08;;;;;;;10.50;7.10;;;;;;;27.40;56.85;99913.05;106234;1254;62261;-80
2024/04/26 06:43:36;;;;;;;9.10;6.80;;;;;;;26.72;61.43;99924.89;106301;1254;62047;-81
2024/04/26 06:46:03;;;;;;;12.60;7.00;;;;;;;26.39;65.00;99932.66;106227;1254;68624;-80
2024/04/26 06:48:31;;;;;;;11.30;6.90;;;;;;;26.26;67.33;99932.02;106412;1255;61907;-81
2024/04/26 06:50:59;;;;;;;10.40;7.20;;;;;;;26.29;69.92;99928.01;106202;1256;66108;-80
2024/04/26 06:53:26;;;;;;;11.80;8.30;;;;;;;26.66;64.55;99926.35;106142;1260;62022;-83
2024/04/26 06:55:54;;;;;;;12.60;7.20;;;;;;;26.48;63.84;99932.11;106049;1254;62149;-83
2024/04/26 06:58:21;;;;;;;17.20;10.60;;;;;;;27.78;55.86;99929.10;106364;1254;69445;-80
2024/04/26 07:00:49;;;;;;;11.20;7.40;;;;;;;28.39;52.18;99928.16;106171;1254;62134;-80
2024/04/26 07:03:18;;;;;;;12.80;7.60;;;;;;;27.67;54.81;99930.41;106270;1256;63841;-83
2024/04/26 07:05:46;;;;;;;11.10;7.50;;;;;;;27.56;55.93;99942.74;106300;1254;62092;-81
2024/04/26 07:08:14;;;;;;;12.30;7.50;;;;;;;27.53;58.88;99946.68;106325;1262;62024;-83
2024/04/26 07:10:44;;;;;;;11.10;7.50;;;;;;;27.68;60.81;99945.89;106369;1254;68059;-83
2024/04/26 07:13:12;;;;;;;18.80;8.30;;;;;;;27.83;59.24;99941.83;106368;1254;61908;-83
2024/04/26 07:15:39;;;;;;;12.40;8.60;;;;;;;27.67;59.98;99939.09;106407;1257;62507;-83
2024/04/26 07:18:07;;;;;;;15.40;9.40;;;;;;;27.81;59.36;99936.13;106262;1256;62114;-83
2024/04/26 07:20:35;;;;;;;15.70;10.50;;;;;;;27.74;57.66;99934.31;106482;1254;62073;-80
2024/04/26 07:23:03;;;;;;;14.80;9.10;;;;;;;26.94;62.90;99943.31;106110;1254;65387;-80
2024/04/26 07:25:31;;;;;;;18.60;11.20;;;;;;;26.80;63.54;99951.16;106275;1254;62025;-81
2024/04/26 07:27:58;;;;;;;15.90;10.40;;;;;;;27.38;59.12;99957.94;106117;1254;64877;-80
2024/04/26 07:30:26;;;;;;;18.40;12.50;;;;;;;27.61;55.20;99967.48;106181;1256;62041;-81
2024/04/26 07:32:54;;;;;;;17.80;11.80;;;;;;;27.36;56.80;99971.11;106425;1260;62107;-80
2024/04/26 07:35:22;;;;;;;21.30;13.20;;;;;;;27.39;56.51;99980.32;106449;1254;68007;-80
2024/04/26 07:37:49;;;;;;;21.30;13.70;;;;;;;27.10;57.17;99977.58;106570;1254;62174;-80
2024/04/26 07:40:17;;;;;;;20.70;14.30;;;;;;;26.70;59.66;99970.15;106085;1263;62657;-80
2024/04/26 07:42:45;;;;;;;23.90;14.80;;;;;;;26.85;59.76;99979.99;106247;1256;62124;-80
2024/04/26 07:45:12;;;;;;;21.60;14.30;;;;;;;26.82;60.50;99985.27;106005;1260;60581;-81
2024/04/26 07:47:40;;;;;;;22.20;14.70;;;;;;;27.08;59.93;99989.81;106240;1254;69015;-83
2024/04/26 07:50:07;;;;;;;22.20;14.50;;;;;;;27.50;57.92;99992.14;106428;1256;62126;-83
2024/04/26 07:52:35;;;;;;;21.40;14.40;;;;;;;27.50;58.90;99993.18;106179;1255;65813;-83
2024/04/26 07:55:03;;;;;;;16.90;12.10;;;;;;;27.37;60.18;99996.91;106317;1254;62065;-83
2024/04/26 07:57:32;;;;;;;17.80;12.40;;;;;;;27.61;58.75;99997.64;106214;1260;61912;-83
2024/04/26 07:59:59;;;;;;;19.90;13.30;;;;;;;27.30;65.43;99992.98;106407;1256;65320;-81
2024/04/26 08:02:30;;;;;;;21.90;14.40;;;;;;;27.59;57.72;99985.70;106339;1254;61948;-80
2024/04/26 08:05:01;;;;;;;22.10;15.70;;;;;;;27.63;54.52;99982.15;106356;1259;66235;-80
2024/04/26 08:07:29;;;;;;;28.50;19.40;;;;;;;27.89;52.60;99989.20;106573;1254;62274;-80
2024/04/26 08:09:57;;;;;;;29.90;19.10;;;;;;;28.29;50.05;99990.66;106298;1254;62424;-80
2024/04/26 08:12:24;;;;;;;29.70;19.90;;;;;;;27.84;51.73;99997.30;106076;1255;68877;-80
2024/04/26 08:14:52;;;;;;;36.80;21.20;;;;;;;28.66;48.87;99997.87;106128;1254;69078;-82
2024/04/26 08:17:20;;;;;;;24.80;18.50;;;;;;;28.86;46.86;100005.02;106031;1257;71247;-80
2024/04/26 08:19:48;;;;;;;25.70;17.90;;;;;;;28.73;46.54;100009.95;106000;1262;62185;-80
2024/04/26 08:22:15;;;;;;;24.50;18.40;;;;;;;28.45;47.39;100015.27;106456;1254;61973;-80
2024/04/26 08:24:43;;;;;;;24.50;18.30;;;;;;;28.65;49.14;100017.14;106084;1256;66974;-83
2024/04/26 08:27:22;;;;;;;24.50;17.30;;;;;;;28.78;48.56;100013.53;106117;1260;62485;-80
2024/04/26 08:29:51;;;;;;;24.50;17.50;;;;;;;28.72;48.06;100014.14;106167;1259;66268;-80
2024/04/26 08:32:20;;;;;;;29.00;20.20;;;;;;;28.66;49.37;100014.84;106184;1254;62082;-80
2024/04/26 08:34:48;;;;;;;27.20;19.80;;;;;;;28.71;47.65;100009.02;106517;1256;61912;-83
2024/04/26 08:37:18;;;;;;;25.50;18.90;;;;;;;28.66;47.77;100006.80;106426;1257;68529;-81
2024/04/26 08:39:46;;;;;;;26.90;17.70;;;;;;;28.81;47.38;100005.33;106315;1259;62079;-83
2024/04/26 08:42:24;;;;;;;24.40;17.50;;;;;;;28.83;47.80;100007.88;106694;1256;63447;-83
2024/04/26 08:44:52;;;;;;;25.20;18.30;;;;;;;28.45;49.95;100014.32;106414;1254;61993;-84
2024/04/26 08:47:19;;;;;;;28.30;19.90;;;;;;;28.45;49.87;100018.02;106301;1254;61356;-84
2024/04/26 08:49:47;;;;;;;26.20;19.50;;;;;;;27.98;52.60;100028.12;105998;1257;68801;-80
2024/04/26 08:52:15;;;;;;;34.40;25.80;;;;;;;27.77;53.88;100034.96;106191;1257;61962;-81
2024/04/26 08:54:42;;;;;;;36.00;26.40;;;;;;;28.20;50.73;100036.30;106533;1254;65911;-82
2024/04/26 08:57:10;;;;;;;36.70;26.60;;;;;;;28.14;49.98;100038.58;106334;1260;61996;-81
2024/04/26 08:59:38;;;;;;;33.70;24.60;;;;;;;27.76;51.13;100046.52;106409;1254;62748;-82
2024/04/26 09:02:05;;;;;;;34.30;23.50;;;;;;;27.92;51.02;100052.89;106295;1254;69017;-80
2024/04/26 09:04:36;;;;;;;40.80;27.90;;;;;;;27.31;53.91;100057.32;106352;1255;62063;-81
2024/04/26 09:07:03;;;;;;;45.20;29.80;;;;;;;26.93;55.59;100059.20;106208;1257;71230;-83
2024/04/26 09:09:31;;;;;;;45.70;30.70;;;;;;;26.96;55.52;100058.88;106355;1254;62069;-81
2024/04/26 09:11:59;;;;;;;42.40;28.90;;;;;;;27.14;55.12;100059.45;106348;1256;62060;-80
2024/04/26 09:14:28;;;;;;;33.60;23.60;;;;;;;27.29;53.85;100065.77;106305;1255;67144;-83
2024/04/26 09:16:55;;;;;;;34.20;24.30;;;;;;;27.46;52.43;100060.79;106100;1254;62166;-83
2024/04/26 09:19:23;;;;;;;34.90;24.80;;;;;;;27.61;51.95;100056.58;106309;1254;73287;-83
2024/04/26 09:21:51;;;;;;;34.00;23.20;;;;;;;27.59;51.51;100055.86;106349;1255;62172;-83
2024/04/26 09:24:18;;;;;;;34.10;23.20;;;;;;;27.56;52.21;100058.19;106191;1254;62717;-80
2024/04/26 09:26:46;;;;;;;33.40;21.40;;;;;;;27.86;51.63;100053.78;106374;1254;68663;-80
2024/04/26 09:29:13;;;;;;;35.40;24.30;;;;;;;28.09;50.88;100045.75;106305;1254;62152;-83
2024/04/26 09:31:42;;;;;;;33.30;23.20;;;;;;;28.04;50.50;100040.40;106335;1254;63742;-83
2024/04/26 09:34:11;;;;;;;33.40;23.60;;;;;;;28.02;50.89;100040.09;106229;1256;62099;-83
2024/04/26 09:36:39;;;;;;;31.70;22.40;;;;;;;27.94;52.42;100037.95;106595;1257;62165;-81
2024/04/26 09:39:07;;;;;;;28.10;21.30;;;;;;;28.12;50.32;100048.07;106422;1254;67818;-82
2024/04/26 09:41:35;;;;;;;25.40;18.90;;;;;;;27.59;51.64;100063.05;106393;1255;62274;-81
2024/04/26 09:44:02;;;;;;;23.30;16.50;;;;;;;27.59;53.32;100053.38;106388;1259;64830;-82
2024/04/26 09:46:30;;;;;;;20.00;14.80;;;;;;;27.44;57.12;100054.52;106651;1261;62065;-82
2024/04/26 09:48:58;;;;;;;14.90;12.70;;;;;;;27.74;55.49;100052.54;106357;1254;62117;-81
2024/04/26 09:51:26;;;;;;;12.60;10.40;;;;;;;27.96;51.69;100057.02;106249;1261;67609;-82
2024/04/26 09:54:04;;;;;;;12.50;9.40;;;;;;;28.49;49.16;100057.58;106365;1254;62168;-83
2024/04/26 09:56:32;;;;;;;16.50;10.20;;;;;;;29.20;45.64;100063.06;106386;1254;65733;-81
2024/04/26 09:58:59;;;;;;;14.60;10.70;;;;;;;29.42;43.46;100069.70;106449;1259;62271;-81
2024/04/26 10:01:27;;;;;;;13.60;10.50;;;;;;;29.66;42.26;100070.02;106376;1256;62143;-82
2024/04/26 10:03:54;;;;;;;13.00;9.90;;;;;;;29.41;42.81;100069.80;106389;1254;68219;-81
2024/04/26 10:06:22;;;;;;;10.30;8.80;;;;;;;29.67;42.06;100061.32;106470;1254;60303;-81
2024/04/26 10:08:50;;;;;;;12.20;9.10;;;;;;;29.79;41.68;100056.46;106402;1254;64348;-83
2024/04/26 10:11:19;;;;;;;12.70;8.30;;;;;;;29.76;41.85;100056.81;106364;1262;62168;-83
2024/04/26 10:13:59;;;;;;;11.10;8.20;;;;;;;29.42;42.49;100063.42;106434;1256;62163;-83
2024/04/26 10:16:27;;;;;;;10.20;8.40;;;;;;;29.65;41.84;100069.71;106337;1259;68651;-81
2024/04/26 10:18:55;;;;;;;9.30;8.40;;;;;;;29.89;41.17;100065.13;106483;1254;61973;-83
2024/04/26 10:21:27;;;;;;;10.10;7.90;;;;;;;30.25;40.39;100068.36;106169;1256;75099;-82
2024/04/26 10:23:55;;;;;;;11.00;7.80;;;;;;;30.21;40.11;100064.79;106149;1256;62258;-81
2024/04/26 10:26:22;;;;;;;9.00;7.40;;;;;;;29.20;43.29;100067.79;106137;1257;62207;-81
2024/04/26 10:28:50;;;;;;;9.90;7.70;;;;;;;29.41;42.62;100067.39;106568;1259;66619;-82
2024/04/26 10:31:27;;;;;;;8.60;6.70;;;;;;;29.64;41.84;100071.90;106170;1257;62173;-81
2024/04/26 10:33:56;;;;;;;8.60;7.10;;;;;;;30.00;41.54;100070.29;106550;1255;64889;-82
2024/04/26 10:36:23;;;;;;;8.80;7.30;;;;;;;29.34;42.10;100072.35;106318;1256;62039;-83
2024/04/26 10:38:51;;;;;;;10.50;6.80;;;;;;;29.40;42.11;100071.33;106226;1262;62419;-81
2024/04/26 10:41:19;;;;;;;8.70;7.30;;;;;;;29.36;43.09;100076.69;106119;1256;69354;-83
2024/04/26 10:43:52;;;;;;;9.50;7.20;;;;;;;30.03;42.35;100074.17;106402;1259;62268;-81
2024/04/26 10:46:20;;;;;;;7.70;6.60;;;;;;;30.02;41.96;100081.68;106350;1254;66043;-81
2024/04/26 10:48:48;;;;;;;18.90;11.70;;;;;;;30.38;41.61;100083.41;106302;1254;62003;-81
2024/04/26 10:51:18;;;;;;;10.10;7.10;;;;;;;30.54;41.73;100083.28;106173;1256;62059;-81
2024/04/26 10:53:48;;;;;;;13.10;8.90;;;;;;;30.27;41.54;100087.73;106390;1254;68767;-81
2024/04/26 10:56:17;;;;;;;9.10;6.60;;;;;;;30.27;40.78;100093.13;106178;1260;61987;-83
2024/04/26 10:58:45;;;;;;;11.70;7.90;;;;;;;30.00;41.01;100090.71;106742;1256;66082;-81
2024/04/26 11:01:22;;;;;;;9.90;7.00;;;;;;;30.17;40.37;100094.92;106486;1254;62146;-82
2024/04/26 11:03:57;;;;;;;8.30;6.20;;;;;;;30.60;39.48;100102.12;106476;1257;61977;-81
2024/04/26 11:06:35;;;;;;;9.10;6.60;;;;;;;30.59;39.34;100100.77;106528;1260;68291;-80
2024/04/26 11:09:08;;;;;;;8.60;6.40;;;;;;;30.63;38.65;100097.08;106498;1257;62355;-80
2024/04/26 11:11:35;;;;;;;9.90;6.20;;;;;;;30.54;38.99;100103.10;106611;1260;62525;-80
2024/04/26 11:14:03;;;;;;;8.60;6.00;;;;;;;30.43;39.19;100099.39;106501;1256;62082;-80
2024/04/26 11:16:31;;;;;;;9.00;7.70;;;;;;;30.20;39.51;100099.12;106518;1259;62190;-79
2024/04/26 11:18:59;;;;;;;11.20;8.80;;;;;;;29.90;39.79;100102.11;106339;1259;68545;-82